sensor_id;sensor_type;location;lat;lon;timestamp;P1;durP1;ratioP1;P2;durP2;ratioP2
7969;SDS011;4030;52.362;9.206;2024-02-23T00:02:18;4.10;;;1.25;;
7969;SDS011;4030;52.362;9.206;2024-02-23T00:04:44;5.28;;;1.20;;
7969;SDS011;4030;52.362;9.206;2024-02-23T00:07:10;2.90;;;1.02;;
7969;SDS011;4030;52.362;9.206;2024-02-23T00:09:36;2.30;;;1.00;;
7969;SDS011;4030;52.362;9.206;2024-02-23T00:12:02;2.60;;;1.00;;
7969;SDS011;4030;52.362;9.206;2024-02-23T00:14:29;4.93;;;1.05;;
7969;SDS011;4030;52.362;9.206;2024-02-23T00:16:56;2.00;;;0.90;;
7969;SDS011;4030;52.362;9.206;2024-02-23T00:19:22;1.58;;;0.82;;
7969;SDS011;4030;52.362;9.206;2024-02-23T00:21:49;2.53;;;0.82;;
7969;SDS011;4030;52.362;9.206;2024-02-23T00:24:16;2.20;;;0.93;;
7969;SDS011;4030;52.362;9.206;2024-02-23T00:26:42;1.95;;;0.85;;
7969;SDS011;4030;52.362;9.206;2024-02-23T00:29:09;2.58;;;0.88;;
7969;SDS011;4030;52.362;9.206;2024-02-23T00:31:37;2.15;;;1.00;;
7969;SDS011;4030;52.362;9.206;2024-02-23T00:34:05;2.17;;;0.95;;
7969;SDS011;4030;52.362;9.206;2024-02-23T00:36:35;1.23;;;0.70;;
7969;SDS011;4030;52.362;9.206;2024-02-23T00:39:06;2.33;;;0.93;;
7969;SDS011;4030;52.362;9.206;2024-02-23T00:41:33;1.95;;;1.00;;
7969;SDS011;4030;52.362;9.206;2024-02-23T00:43:59;2.42;;;0.85;;
7969;SDS011;4030;52.362;9.206;2024-02-23T00:46:25;1.60;;;0.70;;
7969;SDS011;4030;52.362;9.206;2024-02-23T00:48:51;2.22;;;0.70;;
7969;SDS011;4030;52.362;9.206;2024-02-23T00:51:17;2.03;;;0.80;;
7969;SDS011;4030;52.362;9.206;2024-02-23T00:53:42;2.55;;;0.90;;
7969;SDS011;4030;52.362;9.206;2024-02-23T00:56:08;2.50;;;0.90;;
7969;SDS011;4030;52.362;9.206;2024-02-23T00:58:34;0.80;;;0.68;;
7969;SDS011;4030;52.362;9.206;2024-02-23T01:01:00;0.82;;;0.60;;
7969;SDS011;4030;52.362;9.206;2024-02-23T01:03:26;2.08;;;0.68;;
7969;SDS011;4030;52.362;9.206;2024-02-23T01:05:51;1.00;;;0.60;;
7969;SDS011;4030;52.362;9.206;2024-02-23T01:08:17;1.60;;;0.70;;
7969;SDS011;4030;52.362;9.206;2024-02-23T01:10:44;0.55;;;0.52;;
7969;SDS011;4030;52.362;9.206;2024-02-23T01:13:10;0.85;;;0.70;;
7969;SDS011;4030;52.362;9.206;2024-02-23T01:15:35;0.50;;;0.50;;
7969;SDS011;4030;52.362;9.206;2024-02-23T01:18:01;0.85;;;0.60;;
7969;SDS011;4030;52.362;9.206;2024-02-23T01:20:27;1.10;;;0.60;;
7969;SDS011;4030;52.362;9.206;2024-02-23T01:22:53;0.75;;;0.57;;
7969;SDS011;4030;52.362;9.206;2024-02-23T01:25:19;0.40;;;0.40;;
7969;SDS011;4030;52.362;9.206;2024-02-23T01:27:44;0.57;;;0.45;;
7969;SDS011;4030;52.362;9.206;2024-02-23T01:30:10;0.85;;;0.50;;
7969;SDS011;4030;52.362;9.206;2024-02-23T01:32:36;0.50;;;0.50;;
7969;SDS011;4030;52.362;9.206;2024-02-23T01:35:04;0.70;;;0.50;;
7969;SDS011;4030;52.362;9.206;2024-02-23T01:37:30;0.40;;;0.40;;
7969;SDS011;4030;52.362;9.206;2024-02-23T01:39:56;1.52;;;0.40;;
7969;SDS011;4030;52.362;9.206;2024-02-23T01:42:23;2.80;;;0.50;;
7969;SDS011;4030;52.362;9.206;2024-02-23T01:44:49;0.45;;;0.43;;
7969;SDS011;4030;52.362;9.206;2024-02-23T01:47:15;0.40;;;0.40;;
7969;SDS011;4030;52.362;9.206;2024-02-23T01:49:40;0.40;;;0.38;;
7969;SDS011;4030;52.362;9.206;2024-02-23T01:52:07;0.45;;;0.40;;
7969;SDS011;4030;52.362;9.206;2024-02-23T01:54:33;0.50;;;0.38;;
7969;SDS011;4030;52.362;9.206;2024-02-23T01:56:59;0.30;;;0.30;;
7969;SDS011;4030;52.362;9.206;2024-02-23T01:59:25;0.30;;;0.30;;
7969;SDS011;4030;52.362;9.206;2024-02-23T02:01:52;0.20;;;0.20;;
7969;SDS011;4030;52.362;9.206;2024-02-23T02:04:19;0.35;;;0.30;;
7969;SDS011;4030;52.362;9.206;2024-02-23T02:06:48;0.30;;;0.30;;
7969;SDS011;4030;52.362;9.206;2024-02-23T02:09:14;0.30;;;0.30;;
7969;SDS011;4030;52.362;9.206;2024-02-23T02:11:49;0.35;;;0.30;;
7969;SDS011;4030;52.362;9.206;2024-02-23T02:14:15;0.35;;;0.35;;
7969;SDS011;4030;52.362;9.206;2024-02-23T02:16:41;0.38;;;0.30;;
7969;SDS011;4030;52.362;9.206;2024-02-23T02:19:08;0.30;;;0.30;;
7969;SDS011;4030;52.362;9.206;2024-02-23T02:21:35;0.40;;;0.40;;
7969;SDS011;4030;52.362;9.206;2024-02-23T02:24:02;0.30;;;0.30;;
7969;SDS011;4030;52.362;9.206;2024-02-23T02:26:28;0.30;;;0.30;;
7969;SDS011;4030;52.362;9.206;2024-02-23T02:28:54;0.30;;;0.30;;
7969;SDS011;4030;52.362;9.206;2024-02-23T02:31:20;0.40;;;0.40;;
7969;SDS011;4030;52.362;9.206;2024-02-23T02:33:46;0.30;;;0.30;;
7969;SDS011;4030;52.362;9.206;2024-02-23T02:36:11;0.30;;;0.30;;
7969;SDS011;4030;52.362;9.206;2024-02-23T02:38:37;0.30;;;0.30;;
7969;SDS011;4030;52.362;9.206;2024-02-23T02:41:03;0.30;;;0.30;;
7969;SDS011;4030;52.362;9.206;2024-02-23T02:43:30;0.40;;;0.30;;
7969;SDS011;4030;52.362;9.206;2024-02-23T02:45:56;0.38;;;0.38;;
7969;SDS011;4030;52.362;9.206;2024-02-23T02:48:22;0.43;;;0.43;;
7969;SDS011;4030;52.362;9.206;2024-02-23T02:50:48;0.80;;;0.50;;
7969;SDS011;4030;52.362;9.206;2024-02-23T02:53:16;0.40;;;0.40;;
7969;SDS011;4030;52.362;9.206;2024-02-23T02:55:42;1.02;;;0.50;;
7969;SDS011;4030;52.362;9.206;2024-02-23T02:58:08;0.60;;;0.50;;
7969;SDS011;4030;52.362;9.206;2024-02-23T03:00:36;0.95;;;0.50;;
7969;SDS011;4030;52.362;9.206;2024-02-23T03:03:02;0.52;;;0.50;;
7969;SDS011;4030;52.362;9.206;2024-02-23T03:05:27;0.40;;;0.30;;
7969;SDS011;4030;52.362;9.206;2024-02-23T03:07:53;0.60;;;0.50;;
7969;SDS011;4030;52.362;9.206;2024-02-23T03:10:19;0.68;;;0.50;;
7969;SDS011;4030;52.362;9.206;2024-02-23T03:12:44;0.70;;;0.50;;
7969;SDS011;4030;52.362;9.206;2024-02-23T03:15:10;0.68;;;0.60;;
7969;SDS011;4030;52.362;9.206;2024-02-23T03:17:36;0.93;;;0.60;;
7969;SDS011;4030;52.362;9.206;2024-02-23T03:20:02;0.52;;;0.50;;
7969;SDS011;4030;52.362;9.206;2024-02-23T03:22:35;1.38;;;0.50;;
7969;SDS011;4030;52.362;9.206;2024-02-23T03:25:04;0.65;;;0.57;;
7969;SDS011;4030;52.362;9.206;2024-02-23T03:27:33;1.40;;;0.70;;
7969;SDS011;4030;52.362;9.206;2024-02-23T03:30:02;0.93;;;0.60;;
7969;SDS011;4030;52.362;9.206;2024-02-23T03:32:33;1.63;;;0.60;;
7969;SDS011;4030;52.362;9.206;2024-02-23T03:35:02;0.90;;;0.67;;
7969;SDS011;4030;52.362;9.206;2024-02-23T03:37:29;1.13;;;0.63;;
7969;SDS011;4030;52.362;9.206;2024-02-23T03:39:54;0.95;;;0.60;;
7969;SDS011;4030;52.362;9.206;2024-02-23T03:42:20;1.70;;;0.65;;
7969;SDS011;4030;52.362;9.206;2024-02-23T03:44:46;0.75;;;0.70;;
7969;SDS011;4030;52.362;9.206;2024-02-23T03:47:11;0.70;;;0.60;;
7969;SDS011;4030;52.362;9.206;2024-02-23T03:49:37;1.08;;;0.65;;
7969;SDS011;4030;52.362;9.206;2024-02-23T03:52:04;1.10;;;0.70;;
7969;SDS011;4030;52.362;9.206;2024-02-23T03:54:30;0.98;;;0.70;;
7969;SDS011;4030;52.362;9.206;2024-02-23T03:56:59;0.77;;;0.70;;
7969;SDS011;4030;52.362;9.206;2024-02-23T03:59:24;1.48;;;0.60;;
7969;SDS011;4030;52.362;9.206;2024-02-23T04:01:50;1.02;;;0.68;;
7969;SDS011;4030;52.362;9.206;2024-02-23T04:04:16;1.25;;;0.80;;
7969;SDS011;4030;52.362;9.206;2024-02-23T04:06:42;1.55;;;0.70;;
7969;SDS011;4030;52.362;9.206;2024-02-23T04:09:08;1.08;;;0.90;;
7969;SDS011;4030;52.362;9.206;2024-02-23T04:11:33;1.97;;;1.00;;
7969;SDS011;4030;52.362;9.206;2024-02-23T04:13:59;1.48;;;0.82;;
7969;SDS011;4030;52.362;9.206;2024-02-23T04:16:25;0.90;;;0.73;;
7969;SDS011;4030;52.362;9.206;2024-02-23T04:18:51;2.42;;;0.90;;
7969;SDS011;4030;52.362;9.206;2024-02-23T04:21:18;1.67;;;0.73;;
7969;SDS011;4030;52.362;9.206;2024-02-23T04:23:44;1.48;;;0.80;;
7969;SDS011;4030;52.362;9.206;2024-02-23T04:26:10;1.73;;;1.00;;
7969;SDS011;4030;52.362;9.206;2024-02-23T04:28:39;2.25;;;0.82;;
7969;SDS011;4030;52.362;9.206;2024-02-23T04:31:05;2.20;;;0.90;;
7969;SDS011;4030;52.362;9.206;2024-02-23T04:33:34;1.48;;;0.85;;
7969;SDS011;4030;52.362;9.206;2024-02-23T04:36:00;1.88;;;1.05;;
7969;SDS011;4030;52.362;9.206;2024-02-23T04:38:28;1.48;;;0.80;;
7969;SDS011;4030;52.362;9.206;2024-02-23T04:40:54;3.08;;;0.90;;
7969;SDS011;4030;52.362;9.206;2024-02-23T04:43:21;4.93;;;0.90;;
7969;SDS011;4030;52.362;9.206;2024-02-23T04:45:48;2.70;;;0.90;;
7969;SDS011;4030;52.362;9.206;2024-02-23T04:48:13;3.00;;;1.00;;
7969;SDS011;4030;52.362;9.206;2024-02-23T04:50:39;3.07;;;0.90;;
7969;SDS011;4030;52.362;9.206;2024-02-23T04:53:05;1.50;;;0.90;;
7969;SDS011;4030;52.362;9.206;2024-02-23T04:55:30;3.10;;;1.00;;
7969;SDS011;4030;52.362;9.206;2024-02-23T04:57:56;2.20;;;1.00;;
7969;SDS011;4030;52.362;9.206;2024-02-23T05:00:22;2.17;;;0.95;;
7969;SDS011;4030;52.362;9.206;2024-02-23T05:02:48;1.80;;;1.07;;
7969;SDS011;4030;52.362;9.206;2024-02-23T05:05:14;1.77;;;0.90;;
7969;SDS011;4030;52.362;9.206;2024-02-23T05:07:40;1.85;;;0.82;;
7969;SDS011;4030;52.362;9.206;2024-02-23T05:10:06;3.27;;;1.00;;
7969;SDS011;4030;52.362;9.206;2024-02-23T05:12:32;2.80;;;0.90;;
7969;SDS011;4030;52.362;9.206;2024-02-23T05:14:57;1.95;;;0.85;;
7969;SDS011;4030;52.362;9.206;2024-02-23T05:17:23;1.77;;;0.90;;
7969;SDS011;4030;52.362;9.206;2024-02-23T05:19:49;2.22;;;0.88;;
7969;SDS011;4030;52.362;9.206;2024-02-23T05:22:14;3.17;;;1.10;;
7969;SDS011;4030;52.362;9.206;2024-02-23T05:24:40;3.15;;;0.90;;
7969;SDS011;4030;52.362;9.206;2024-02-23T05:27:06;1.00;;;0.80;;
7969;SDS011;4030;52.362;9.206;2024-02-23T05:29:31;2.78;;;0.90;;
7969;SDS011;4030;52.362;9.206;2024-02-23T05:31:57;1.80;;;0.80;;
7969;SDS011;4030;52.362;9.206;2024-02-23T05:34:23;1.63;;;0.93;;
7969;SDS011;4030;52.362;9.206;2024-02-23T05:36:48;1.85;;;0.80;;
7969;SDS011;4030;52.362;9.206;2024-02-23T05:39:16;1.77;;;0.85;;
7969;SDS011;4030;52.362;9.206;2024-02-23T05:41:42;1.55;;;0.90;;
7969;SDS011;4030;52.362;9.206;2024-02-23T05:44:08;1.58;;;0.80;;
7969;SDS011;4030;52.362;9.206;2024-02-23T05:46:34;1.60;;;1.05;;
7969;SDS011;4030;52.362;9.206;2024-02-23T05:49:01;1.88;;;1.00;;
7969;SDS011;4030;52.362;9.206;2024-02-23T05:51:29;2.08;;;1.05;;
7969;SDS011;4030;52.362;9.206;2024-02-23T05:53:55;3.22;;;1.00;;
7969;SDS011;4030;52.362;9.206;2024-02-23T05:56:21;2.92;;;1.10;;
7969;SDS011;4030;52.362;9.206;2024-02-23T05:58:48;2.72;;;1.00;;
7969;SDS011;4030;52.362;9.206;2024-02-23T06:01:14;1.75;;;0.90;;
7969;SDS011;4030;52.362;9.206;2024-02-23T06:03:40;2.30;;;0.80;;
7969;SDS011;4030;52.362;9.206;2024-02-23T06:06:09;3.85;;;1.17;;
7969;SDS011;4030;52.362;9.206;2024-02-23T06:08:35;2.65;;;1.08;;
7969;SDS011;4030;52.362;9.206;2024-02-23T06:11:01;3.07;;;0.80;;
7969;SDS011;4030;52.362;9.206;2024-02-23T06:13:29;2.63;;;1.00;;
7969;SDS011;4030;52.362;9.206;2024-02-23T06:15:58;1.97;;;0.90;;
7969;SDS011;4030;52.362;9.206;2024-02-23T06:18:24;3.07;;;1.20;;
7969;SDS011;4030;52.362;9.206;2024-02-23T06:20:50;2.77;;;0.90;;
7969;SDS011;4030;52.362;9.206;2024-02-23T06:23:16;2.20;;;1.10;;
7969;SDS011;4030;52.362;9.206;2024-02-23T06:25:42;3.97;;;1.07;;
7969;SDS011;4030;52.362;9.206;2024-02-23T06:28:11;2.10;;;1.00;;
7969;SDS011;4030;52.362;9.206;2024-02-23T06:30:37;3.20;;;1.03;;
7969;SDS011;4030;52.362;9.206;2024-02-23T06:33:02;2.40;;;1.03;;
7969;SDS011;4030;52.362;9.206;2024-02-23T06:35:29;2.03;;;0.93;;
7969;SDS011;4030;52.362;9.206;2024-02-23T06:37:55;2.17;;;1.10;;
7969;SDS011;4030;52.362;9.206;2024-02-23T06:40:21;2.10;;;1.00;;
7969;SDS011;4030;52.362;9.206;2024-02-23T06:42:47;2.33;;;0.90;;
7969;SDS011;4030;52.362;9.206;2024-02-23T06:45:13;2.77;;;1.10;;
7969;SDS011;4030;52.362;9.206;2024-02-23T06:47:39;2.65;;;1.00;;
7969;SDS011;4030;52.362;9.206;2024-02-23T06:50:05;3.27;;;1.00;;
7969;SDS011;4030;52.362;9.206;2024-02-23T06:52:31;3.67;;;1.25;;
7969;SDS011;4030;52.362;9.206;2024-02-23T06:54:58;2.42;;;1.00;;
7969;SDS011;4030;52.362;9.206;2024-02-23T06:57:24;2.42;;;1.20;;
7969;SDS011;4030;52.362;9.206;2024-02-23T06:59:51;2.47;;;1.05;;
7969;SDS011;4030;52.362;9.206;2024-02-23T07:02:17;2.35;;;1.00;;
7969;SDS011;4030;52.362;9.206;2024-02-23T07:04:42;2.25;;;1.10;;
7969;SDS011;4030;52.362;9.206;2024-02-23T07:07:08;2.10;;;1.05;;
7969;SDS011;4030;52.362;9.206;2024-02-23T07:09:34;1.17;;;0.90;;
7969;SDS011;4030;52.362;9.206;2024-02-23T07:12:00;2.00;;;0.90;;
7969;SDS011;4030;52.362;9.206;2024-02-23T07:14:26;2.67;;;1.20;;
7969;SDS011;4030;52.362;9.206;2024-02-23T07:16:52;2.72;;;1.00;;
7969;SDS011;4030;52.362;9.206;2024-02-23T07:19:17;2.30;;;1.08;;
7969;SDS011;4030;52.362;9.206;2024-02-23T07:21:45;4.43;;;1.53;;
7969;SDS011;4030;52.362;9.206;2024-02-23T07:24:11;2.95;;;0.90;;
7969;SDS011;4030;52.362;9.206;2024-02-23T07:26:37;2.10;;;1.05;;
7969;SDS011;4030;52.362;9.206;2024-02-23T07:29:03;2.87;;;1.00;;
7969;SDS011;4030;52.362;9.206;2024-02-23T07:31:29;3.40;;;1.23;;
7969;SDS011;4030;52.362;9.206;2024-02-23T07:33:54;2.00;;;1.13;;
7969;SDS011;4030;52.362;9.206;2024-02-23T07:36:20;2.03;;;0.90;;
7969;SDS011;4030;52.362;9.206;2024-02-23T07:38:47;3.50;;;0.90;;
7969;SDS011;4030;52.362;9.206;2024-02-23T07:41:13;3.83;;;1.20;;
7969;SDS011;4030;52.362;9.206;2024-02-23T07:43:40;3.45;;;1.27;;
7969;SDS011;4030;52.362;9.206;2024-02-23T07:46:05;2.60;;;1.07;;
7969;SDS011;4030;52.362;9.206;2024-02-23T07:48:34;3.08;;;1.00;;
7969;SDS011;4030;52.362;9.206;2024-02-23T07:51:01;1.70;;;0.88;;
7969;SDS011;4030;52.362;9.206;2024-02-23T07:53:30;3.42;;;1.00;;
7969;SDS011;4030;52.362;9.206;2024-02-23T07:55:56;2.83;;;1.15;;
7969;SDS011;4030;52.362;9.206;2024-02-23T07:58:24;2.40;;;0.95;;
7969;SDS011;4030;52.362;9.206;2024-02-23T08:00:53;4.85;;;1.23;;
7969;SDS011;4030;52.362;9.206;2024-02-23T08:03:19;2.83;;;1.20;;
7969;SDS011;4030;52.362;9.206;2024-02-23T08:05:45;3.28;;;0.90;;
7969;SDS011;4030;52.362;9.206;2024-02-23T08:08:10;3.17;;;1.20;;
7969;SDS011;4030;52.362;9.206;2024-02-23T08:10:37;2.70;;;1.10;;
7969;SDS011;4030;52.362;9.206;2024-02-23T08:13:02;2.58;;;0.95;;
7969;SDS011;4030;52.362;9.206;2024-02-23T08:15:28;4.40;;;1.10;;
7969;SDS011;4030;52.362;9.206;2024-02-23T08:17:54;2.70;;;1.05;;
7969;SDS011;4030;52.362;9.206;2024-02-23T08:20:20;2.22;;;1.08;;
7969;SDS011;4030;52.362;9.206;2024-02-23T08:22:46;2.17;;;0.90;;
7969;SDS011;4030;52.362;9.206;2024-02-23T08:25:12;2.88;;;1.00;;
7969;SDS011;4030;52.362;9.206;2024-02-23T08:27:38;5.72;;;1.38;;
7969;SDS011;4030;52.362;9.206;2024-02-23T08:30:06;3.03;;;1.20;;
7969;SDS011;4030;52.362;9.206;2024-02-23T08:32:32;3.35;;;0.82;;
7969;SDS011;4030;52.362;9.206;2024-02-23T08:34:58;4.00;;;1.15;;
7969;SDS011;4030;52.362;9.206;2024-02-23T08:37:27;2.35;;;1.00;;
7969;SDS011;4030;52.362;9.206;2024-02-23T08:39:53;1.58;;;0.90;;
7969;SDS011;4030;52.362;9.206;2024-02-23T08:42:19;2.75;;;0.90;;
7969;SDS011;4030;52.362;9.206;2024-02-23T08:44:45;3.00;;;1.00;;
7969;SDS011;4030;52.362;9.206;2024-02-23T08:47:11;2.38;;;1.00;;
7969;SDS011;4030;52.362;9.206;2024-02-23T08:49:36;2.08;;;0.95;;
7969;SDS011;4030;52.362;9.206;2024-02-23T08:52:02;2.90;;;1.00;;
7969;SDS011;4030;52.362;9.206;2024-02-23T08:54:29;2.20;;;1.00;;
7969;SDS011;4030;52.362;9.206;2024-02-23T08:56:54;2.55;;;1.00;;
7969;SDS011;4030;52.362;9.206;2024-02-23T08:59:20;4.18;;;1.10;;
7969;SDS011;4030;52.362;9.206;2024-02-23T09:01:46;1.55;;;0.90;;
7969;SDS011;4030;52.362;9.206;2024-02-23T09:04:12;2.58;;;1.00;;
7969;SDS011;4030;52.362;9.206;2024-02-23T09:06:40;3.05;;;1.17;;
7969;SDS011;4030;52.362;9.206;2024-02-23T09:09:06;1.77;;;0.90;;
7969;SDS011;4030;52.362;9.206;2024-02-23T09:11:32;3.15;;;0.80;;
7969;SDS011;4030;52.362;9.206;2024-02-23T09:13:57;1.90;;;0.88;;
7969;SDS011;4030;52.362;9.206;2024-02-23T09:16:23;3.63;;;1.02;;
7969;SDS011;4030;52.362;9.206;2024-02-23T09:18:49;3.03;;;0.98;;
7969;SDS011;4030;52.362;9.206;2024-02-23T09:21:15;1.88;;;0.73;;
7969;SDS011;4030;52.362;9.206;2024-02-23T09:23:41;0.98;;;0.70;;
7969;SDS011;4030;52.362;9.206;2024-02-23T09:26:10;2.08;;;0.80;;
7969;SDS011;4030;52.362;9.206;2024-02-23T09:28:36;1.75;;;0.75;;
7969;SDS011;4030;52.362;9.206;2024-02-23T09:31:02;2.25;;;0.98;;
7969;SDS011;4030;52.362;9.206;2024-02-23T09:33:29;2.20;;;0.95;;
7969;SDS011;4030;52.362;9.206;2024-02-23T09:35:56;2.63;;;1.00;;
7969;SDS011;4030;52.362;9.206;2024-02-23T09:38:22;1.75;;;0.90;;
7969;SDS011;4030;52.362;9.206;2024-02-23T09:40:50;1.75;;;0.88;;
7969;SDS011;4030;52.362;9.206;2024-02-23T09:43:16;2.50;;;0.93;;
7969;SDS011;4030;52.362;9.206;2024-02-23T09:45:43;1.33;;;0.88;;
7969;SDS011;4030;52.362;9.206;2024-02-23T09:48:10;2.20;;;0.90;;
7969;SDS011;4030;52.362;9.206;2024-02-23T09:50:37;3.03;;;1.02;;
7969;SDS011;4030;52.362;9.206;2024-02-23T09:53:06;2.80;;;0.80;;
7969;SDS011;4030;52.362;9.206;2024-02-23T09:55:36;1.63;;;0.77;;
7969;SDS011;4030;52.362;9.206;2024-02-23T09:58:01;2.05;;;0.80;;
7969;SDS011;4030;52.362;9.206;2024-02-23T10:00:28;1.63;;;0.85;;
7969;SDS011;4030;52.362;9.206;2024-02-23T10:02:55;1.65;;;0.85;;
7969;SDS011;4030;52.362;9.206;2024-02-23T10:05:23;1.40;;;0.70;;
7969;SDS011;4030;52.362;9.206;2024-02-23T10:07:54;2.25;;;0.95;;
7969;SDS011;4030;52.362;9.206;2024-02-23T10:10:24;1.55;;;0.80;;
7969;SDS011;4030;52.362;9.206;2024-02-23T10:12:56;2.08;;;0.90;;
7969;SDS011;4030;52.362;9.206;2024-02-23T10:15:23;2.75;;;0.95;;
7969;SDS011;4030;52.362;9.206;2024-02-23T10:17:49;2.35;;;0.80;;
7969;SDS011;4030;52.362;9.206;2024-02-23T10:20:14;1.67;;;0.80;;
7969;SDS011;4030;52.362;9.206;2024-02-23T10:22:40;2.60;;;1.10;;
7969;SDS011;4030;52.362;9.206;2024-02-23T10:25:06;1.38;;;0.75;;
7969;SDS011;4030;52.362;9.206;2024-02-23T10:27:32;1.60;;;0.80;;
7969;SDS011;4030;52.362;9.206;2024-02-23T10:29:58;1.25;;;0.65;;
7969;SDS011;4030;52.362;9.206;2024-02-23T10:32:23;1.55;;;0.70;;
7969;SDS011;4030;52.362;9.206;2024-02-23T10:34:54;1.50;;;0.73;;
7969;SDS011;4030;52.362;9.206;2024-02-23T10:37:25;2.03;;;0.77;;
7969;SDS011;4030;52.362;9.206;2024-02-23T10:39:53;2.03;;;0.80;;
7969;SDS011;4030;52.362;9.206;2024-02-23T10:42:23;2.17;;;0.80;;
7969;SDS011;4030;52.362;9.206;2024-02-23T10:44:50;1.83;;;0.73;;
7969;SDS011;4030;52.362;9.206;2024-02-23T10:47:16;2.15;;;0.95;;
7969;SDS011;4030;52.362;9.206;2024-02-23T10:49:42;1.52;;;0.73;;
7969;SDS011;4030;52.362;9.206;2024-02-23T10:52:10;1.63;;;0.70;;
7969;SDS011;4030;52.362;9.206;2024-02-23T10:54:38;2.72;;;1.10;;
7969;SDS011;4030;52.362;9.206;2024-02-23T10:57:05;1.67;;;0.70;;
7969;SDS011;4030;52.362;9.206;2024-02-23T10:59:31;1.80;;;0.80;;
7969;SDS011;4030;52.362;9.206;2024-02-23T11:01:57;1.23;;;0.70;;
7969;SDS011;4030;52.362;9.206;2024-02-23T11:04:25;2.45;;;0.80;;
7969;SDS011;4030;52.362;9.206;2024-02-23T11:06:53;2.05;;;0.80;;
7969;SDS011;4030;52.362;9.206;2024-02-23T11:09:24;2.47;;;0.80;;
7969;SDS011;4030;52.362;9.206;2024-02-23T11:12:08;1.63;;;0.70;;
7969;SDS011;4030;52.362;9.206;2024-02-23T11:14:35;1.50;;;0.75;;
7969;SDS011;4030;52.362;9.206;2024-02-23T11:17:02;2.08;;;0.80;;
7969;SDS011;4030;52.362;9.206;2024-02-23T11:19:35;1.60;;;0.90;;
7969;SDS011;4030;52.362;9.206;2024-02-23T11:22:02;2.40;;;1.00;;
7969;SDS011;4030;52.362;9.206;2024-02-23T11:24:29;0.93;;;0.60;;
7969;SDS011;4030;52.362;9.206;2024-02-23T11:26:56;2.38;;;0.90;;
7969;SDS011;4030;52.362;9.206;2024-02-23T11:29:25;1.83;;;0.75;;
7969;SDS011;4030;52.362;9.206;2024-02-23T11:31:53;1.40;;;0.90;;
7969;SDS011;4030;52.362;9.206;2024-02-23T11:34:26;2.78;;;1.08;;
7969;SDS011;4030;52.362;9.206;2024-02-23T11:36:55;1.05;;;0.70;;
7969;SDS011;4030;52.362;9.206;2024-02-23T11:39:24;2.20;;;1.00;;
7969;SDS011;4030;52.362;9.206;2024-02-23T11:41:52;1.67;;;1.00;;
7969;SDS011;4030;52.362;9.206;2024-02-23T11:44:18;2.55;;;0.90;;
7969;SDS011;4030;52.362;9.206;2024-02-23T11:46:44;1.75;;;0.80;;
7969;SDS011;4030;52.362;9.206;2024-02-23T11:49:11;1.23;;;0.75;;
7969;SDS011;4030;52.362;9.206;2024-02-23T11:51:38;2.17;;;1.20;;
7969;SDS011;4030;52.362;9.206;2024-02-23T11:54:05;1.98;;;0.95;;
7969;SDS011;4030;52.362;9.206;2024-02-23T11:56:31;3.05;;;1.00;;
7969;SDS011;4030;52.362;9.206;2024-02-23T11:58:57;1.63;;;0.73;;
7969;SDS011;4030;52.362;9.206;2024-02-23T12:01:23;1.85;;;0.93;;
7969;SDS011;4030;52.362;9.206;2024-02-23T12:03:48;2.22;;;0.80;;
7969;SDS011;4030;52.362;9.206;2024-02-23T12:06:14;1.85;;;1.02;;
7969;SDS011;4030;52.362;9.206;2024-02-23T12:08:40;1.98;;;0.80;;
7969;SDS011;4030;52.362;9.206;2024-02-23T12:11:07;1.30;;;1.00;;
7969;SDS011;4030;52.362;9.206;2024-02-23T12:13:37;1.92;;;0.98;;
7969;SDS011;4030;52.362;9.206;2024-02-23T12:16:03;1.08;;;0.73;;
7969;SDS011;4030;52.362;9.206;2024-02-23T12:18:35;1.73;;;0.90;;
7969;SDS011;4030;52.362;9.206;2024-02-23T12:21:02;3.38;;;0.93;;
7969;SDS011;4030;52.362;9.206;2024-02-23T12:23:44;1.65;;;1.00;;
7969;SDS011;4030;52.362;9.206;2024-02-23T12:26:13;1.42;;;0.85;;
7969;SDS011;4030;52.362;9.206;2024-02-23T12:28:42;2.45;;;0.93;;
7969;SDS011;4030;52.362;9.206;2024-02-23T12:31:09;2.13;;;1.08;;
7969;SDS011;4030;52.362;9.206;2024-02-23T12:33:35;1.98;;;0.90;;
7969;SDS011;4030;52.362;9.206;2024-02-23T12:36:04;2.45;;;1.10;;
7969;SDS011;4030;52.362;9.206;2024-02-23T12:38:31;1.83;;;1.00;;
7969;SDS011;4030;52.362;9.206;2024-02-23T12:40:57;3.08;;;1.25;;
7969;SDS011;4030;52.362;9.206;2024-02-23T12:43:24;1.60;;;0.98;;
7969;SDS011;4030;52.362;9.206;2024-02-23T12:45:51;2.03;;;0.88;;
7969;SDS011;4030;52.362;9.206;2024-02-23T12:48:18;2.28;;;0.90;;
7969;SDS011;4030;52.362;9.206;2024-02-23T12:50:44;1.90;;;1.00;;
7969;SDS011;4030;52.362;9.206;2024-02-23T12:56:05;1.05;;;0.70;;
7969;SDS011;4030;52.362;9.206;2024-02-23T12:58:33;2.03;;;0.90;;
7969;SDS011;4030;52.362;9.206;2024-02-23T13:01:06;1.92;;;0.80;;
7969;SDS011;4030;52.362;9.206;2024-02-23T13:03:36;1.23;;;0.77;;
7969;SDS011;4030;52.362;9.206;2024-02-23T13:06:04;1.52;;;0.80;;
7969;SDS011;4030;52.362;9.206;2024-02-23T13:08:30;1.38;;;0.80;;
7969;SDS011;4030;52.362;9.206;2024-02-23T13:10:56;2.10;;;0.90;;
7969;SDS011;4030;52.362;9.206;2024-02-23T13:13:22;2.17;;;0.85;;
7969;SDS011;4030;52.362;9.206;2024-02-23T13:15:49;2.10;;;0.90;;
7969;SDS011;4030;52.362;9.206;2024-02-23T13:18:17;2.35;;;0.80;;
7969;SDS011;4030;52.362;9.206;2024-02-23T13:20:44;1.23;;;0.70;;
7969;SDS011;4030;52.362;9.206;2024-02-23T13:23:10;2.13;;;0.70;;
7969;SDS011;4030;52.362;9.206;2024-02-23T13:25:37;1.17;;;0.80;;
7969;SDS011;4030;52.362;9.206;2024-02-23T13:28:04;2.85;;;0.93;;
7969;SDS011;4030;52.362;9.206;2024-02-23T13:30:31;1.63;;;0.93;;
7969;SDS011;4030;52.362;9.206;2024-02-23T13:32:57;1.05;;;0.70;;
7969;SDS011;4030;52.362;9.206;2024-02-23T13:35:23;1.67;;;0.80;;
7969;SDS011;4030;52.362;9.206;2024-02-23T13:37:49;1.33;;;0.60;;
7969;SDS011;4030;52.362;9.206;2024-02-23T13:40:15;1.52;;;0.85;;
7969;SDS011;4030;52.362;9.206;2024-02-23T13:42:41;1.70;;;0.75;;
7969;SDS011;4030;52.362;9.206;2024-02-23T13:45:08;2.35;;;0.80;;
7969;SDS011;4030;52.362;9.206;2024-02-23T13:47:35;2.92;;;0.90;;
7969;SDS011;4030;52.362;9.206;2024-02-23T13:50:01;2.55;;;1.02;;
7969;SDS011;4030;52.362;9.206;2024-02-23T13:52:27;2.10;;;0.80;;
7969;SDS011;4030;52.362;9.206;2024-02-23T13:54:53;1.73;;;0.73;;
7969;SDS011;4030;52.362;9.206;2024-02-23T13:57:19;1.52;;;0.80;;
7969;SDS011;4030;52.362;9.206;2024-02-23T13:59:45;1.02;;;0.70;;
7969;SDS011;4030;52.362;9.206;2024-02-23T14:02:11;2.25;;;0.93;;
7969;SDS011;4030;52.362;9.206;2024-02-23T14:04:37;1.05;;;0.70;;
7969;SDS011;4030;52.362;9.206;2024-02-23T14:07:02;1.83;;;0.70;;
7969;SDS011;4030;52.362;9.206;2024-02-23T14:09:29;2.15;;;0.73;;
7969;SDS011;4030;52.362;9.206;2024-02-23T14:11:55;3.40;;;0.70;;
7969;SDS011;4030;52.362;9.206;2024-02-23T14:14:22;1.23;;;0.80;;
7969;SDS011;4030;52.362;9.206;2024-02-23T14:16:48;1.50;;;0.90;;
7969;SDS011;4030;52.362;9.206;2024-02-23T14:19:14;2.17;;;0.68;;
7969;SDS011;4030;52.362;9.206;2024-02-23T14:21:40;1.10;;;0.60;;
7969;SDS011;4030;52.362;9.206;2024-02-23T14:24:06;2.65;;;0.80;;
7969;SDS011;4030;52.362;9.206;2024-02-23T14:26:31;1.20;;;0.70;;
7969;SDS011;4030;52.362;9.206;2024-02-23T14:28:58;1.40;;;0.65;;
7969;SDS011;4030;52.362;9.206;2024-02-23T14:31:24;1.50;;;0.70;;
7969;SDS011;4030;52.362;9.206;2024-02-23T14:33:50;1.95;;;0.70;;
7969;SDS011;4030;52.362;9.206;2024-02-23T14:36:17;1.88;;;0.90;;
7969;SDS011;4030;52.362;9.206;2024-02-23T14:38:43;1.95;;;0.80;;
7969;SDS011;4030;52.362;9.206;2024-02-23T14:41:09;2.42;;;0.85;;
7969;SDS011;4030;52.362;9.206;2024-02-23T14:43:36;1.52;;;0.70;;
7969;SDS011;4030;52.362;9.206;2024-02-23T14:46:02;1.23;;;0.70;;
7969;SDS011;4030;52.362;9.206;2024-02-23T14:48:30;1.60;;;0.93;;
7969;SDS011;4030;52.362;9.206;2024-02-23T14:50:55;1.65;;;0.82;;
7969;SDS011;4030;52.362;9.206;2024-02-23T14:53:22;1.02;;;0.77;;
7969;SDS011;4030;52.362;9.206;2024-02-23T14:55:48;1.73;;;0.90;;
7969;SDS011;4030;52.362;9.206;2024-02-23T14:58:14;2.17;;;0.93;;
7969;SDS011;4030;52.362;9.206;2024-02-23T15:00:40;1.60;;;0.88;;
7969;SDS011;4030;52.362;9.206;2024-02-23T15:03:06;1.45;;;0.82;;
7969;SDS011;4030;52.362;9.206;2024-02-23T15:05:33;1.75;;;0.85;;
7969;SDS011;4030;52.362;9.206;2024-02-23T15:07:59;1.10;;;0.65;;
7969;SDS011;4030;52.362;9.206;2024-02-23T15:10:25;1.92;;;0.77;;
7969;SDS011;4030;52.362;9.206;2024-02-23T15:12:59;0.82;;;0.70;;
7969;SDS011;4030;52.362;9.206;2024-02-23T15:15:25;0.80;;;0.77;;